Wetterdaten: aktuell Donnerstag, 13.12.2018 18:35
Datum Zeit Temp. A. Feuchte A. Luftdruck Regen Wind Richtung Richtung Taupunkt Windchill Windben
13.12.2018 18:35 -1,9 C 87 % 1018,4 hPa 0,0 l/m 9,7 km/h (2 Bft) NO 45 -3,8 C -5,3 C 14,5 km/h (3 Bft)
13.12.2018 17:35 -1,8 C 87 % 1018,3 hPa 0,0 l/m 8,0 km/h (2 Bft) O-NO 67 -3,7 C -3,5 C 12,9 km/h (3 Bft)
13.12.2018 16:35 -1,6 C 86 % 1017,8 hPa 0,0 l/m 9,7 km/h (2 Bft) NO 45 -3,6 C -5,0 C 16,1 km/h (3 Bft)
13.12.2018 15:35 -1,4 C 86 % 1017,5 hPa 0,0 l/m 6,4 km/h (2 Bft) O-NO 67 -3,4 C -1,4 C 11,3 km/h (2 Bft)
13.12.2018 14:35 -1,2 C 84 % 1017,5 hPa 0,0 l/m 8,0 km/h (2 Bft) O-NO 67 -3,5 C -2,9 C 11,3 km/h (2 Bft)
13.12.2018 13:35 -0,9 C 83 % 1017,7 hPa 0,0 l/m 4,8 km/h (1 Bft) O-NO 67 -3,4 C -0,9 C 9,7 km/h (2 Bft)
13.12.2018 12:35 -0,7 C 85 % 1017,8 hPa 0,0 l/m 16,1 km/h (3 Bft) O-NO 67 -2,9 C -8,5 C 27,4 km/h (4 Bft)
13.12.2018 11:35 -0,8 C 87 % 1018,0 hPa 0,0 l/m 9,7 km/h (2 Bft) O-NO 67 -2,7 C -4,1 C 12,9 km/h (3 Bft)
13.12.2018 10:35 -0,9 C 88 % 1018,5 hPa 0,0 l/m 8,0 km/h (2 Bft) O-NO 67 -2,6 C -2,6 C 11,3 km/h (2 Bft)
13.12.2018 09:35 -1,1 C 89 % 1018,7 hPa 0,0 l/m 16,1 km/h (3 Bft) NO 45 -2,7 C -9,0 C 20,9 km/h (4 Bft)
13.12.2018 08:35 -1,2 C 90 % 1018,9 hPa 0,0 l/m 8,0 km/h (2 Bft) O-NO 67 -2,6 C -2,9 C 12,9 km/h (3 Bft)
13.12.2018 07:35 -1,3 C 91 % 1019,2 hPa 0,0 l/m 11,3 km/h (2 Bft) O-NO 67 -2,6 C -6,0 C 17,7 km/h (3 Bft)
13.12.2018 06:35 -1,5 C 91 % 1019,1 hPa 0,0 l/m 6,4 km/h (2 Bft) O-NO 67 -2,8 C -1,5 C 11,3 km/h (2 Bft)
13.12.2018 05:35 -1,5 C 90 % 1019,6 hPa 0,0 l/m 16,1 km/h (3 Bft) NO 45 -2,9 C -9,5 C 19,3 km/h (3 Bft)
13.12.2018 04:35 -1,4 C 90 % 1020,1 hPa 0,0 l/m 11,3 km/h (2 Bft) O-NO 67 -2,8 C -6,1 C 17,7 km/h (3 Bft)
13.12.2018 03:35 -1,3 C 90 % 1020,5 hPa 0,0 l/m 9,7 km/h (2 Bft) NO 45 -2,7 C -4,6 C 14,5 km/h (3 Bft)
13.12.2018 02:35 -1,3 C 89 % 1021,0 hPa 0,2 l/m 14,5 km/h (3 Bft) O-NO 67 -2,9 C -8,2 C 17,7 km/h (3 Bft)
13.12.2018 01:35 -0,6 C 92 % 1021,2 hPa 0,0 l/m 8,0 km/h (2 Bft) O-NO 67 -1,7 C -2,3 C 14,5 km/h (3 Bft)
13.12.2018 00:35 -0,7 C 93 % 1022,0 hPa 0,0 l/m 1,6 km/h (1 Bft) O-NO 67 -1,7 C -0,7 C 3,2 km/h (1 Bft)
12.12.2018 23:35 -1,1 C 92 % 1022,5 hPa 0,0 l/m 0,0 km/h (0 Bft) NO 45 -2,2 C -1,1 C 1,6 km/h (1 Bft)
12.12.2018 22:35 -0,9 C 92 % 1022,7 hPa 0,0 l/m 1,6 km/h (1 Bft) NO 45 -2,0 C -0,9 C 3,2 km/h (1 Bft)
12.12.2018 21:35 -0,6 C 92 % 1023,2 hPa 0,0 l/m 0,0 km/h (0 Bft) N 0 -1,7 C -0,6 C 0,0 km/h (0 Bft)
12.12.2018 20:35 -0,2 C 92 % 1023,6 hPa 0,0 l/m 0,0 km/h (0 Bft) N 0 -1,3 C -0,2 C 0,0 km/h (0 Bft)
12.12.2018 19:35 0,1 C 92 % 1023,8 hPa 0,0 l/m 1,6 km/h (1 Bft) W 270 -1,0 C 0,1 C 3,2 km/h (1 Bft)
12.12.2018 19:00 -0,1 C 91 % 1023,8 hPa 0,0 l/m 0,0 km/h (0 Bft) N 0 -1,4 C -0,1 C 0,0 km/h (0 Bft)
_ Min-Zeit 18:22 13:00 15:18 - 19:00 - - 17:41 15:14 19:00
Minimum _ -2,0 C 83 % 1017,4 hPa - 0,0 km/h (0 Bft) - - -3,9 C -11,9 C 0,0 km/h (0 Bft)
_ Max-Zeit 19:15 00:03 19:26 02:00 12:48 - - 19:20 19:15 02:06
Maximum _ 0,1 C 93 % 1023,9 hPa 0,2 l/m 20,9 km/h
NO (4 Bft)
- - -1,0 C 0,1 C 27,4 km/h
NO (4 Bft)
Durchschnitt _ -1,0 C 89 % 1020,2 hPa #0,2 l/m 7,4 km/h (2 Bft) O-NO - -2,5 C -3,5 C 11,2 km/h (2 Bft)